createdAt,value
2023-05-07T00:01:15.305Z,99.90
2023-05-07T00:03:42.947Z,99.90
2023-05-07T00:06:09.949Z,99.90
2023-05-07T00:08:36.624Z,99.90
2023-05-07T00:11:03.383Z,99.90
2023-05-07T00:13:36.270Z,99.90
2023-05-07T00:16:03.771Z,99.90
2023-05-07T00:18:30.648Z,99.90
2023-05-07T00:20:57.359Z,99.90
2023-05-07T00:23:24.260Z,99.90
2023-05-07T00:25:50.960Z,99.90
2023-05-07T00:28:17.651Z,99.90
2023-05-07T00:30:44.399Z,99.90
2023-05-07T00:33:11.286Z,99.90
2023-05-07T00:35:38.005Z,99.90
2023-05-07T00:38:04.709Z,99.90
2023-05-07T00:40:31.450Z,99.90
2023-05-07T00:42:59.241Z,99.90
2023-05-07T00:45:29.666Z,99.90
2023-05-07T00:47:57.149Z,99.90
2023-05-07T00:50:24.264Z,99.90
2023-05-07T00:52:50.976Z,99.90
2023-05-07T00:55:17.921Z,99.90
2023-05-07T00:57:44.868Z,99.90
2023-05-07T01:00:13.882Z,99.90
2023-05-07T01:02:41.388Z,99.90
2023-05-07T01:05:18.420Z,99.90
2023-05-07T01:07:45.918Z,99.90
2023-05-07T01:10:12.996Z,99.90
2023-05-07T01:12:40.885Z,99.90
2023-05-07T01:15:08.890Z,99.90
2023-05-07T01:17:36.781Z,99.90
2023-05-07T01:20:06.032Z,99.90
2023-05-07T01:22:37.563Z,99.90
2023-05-07T01:25:05.173Z,99.90
2023-05-07T01:27:31.871Z,99.90
2023-05-07T01:29:58.606Z,99.90
2023-05-07T01:32:40.648Z,99.90
2023-05-07T01:35:09.053Z,99.90
2023-05-07T01:37:35.964Z,99.90
2023-05-07T01:40:03.105Z,99.90
2023-05-07T01:42:30.319Z,99.90
2023-05-07T01:44:59.394Z,99.90
2023-05-07T01:47:26.443Z,99.90
2023-05-07T01:49:53.347Z,99.90
2023-05-07T01:52:20.118Z,99.90
2023-05-07T01:54:46.804Z,99.90
2023-05-07T01:57:13.468Z,99.90
2023-05-07T01:59:40.155Z,99.90
2023-05-07T02:02:06.943Z,99.90
2023-05-07T02:04:33.714Z,99.90
2023-05-07T02:07:00.422Z,99.90
2023-05-07T02:09:27.085Z,99.90
2023-05-07T02:11:53.770Z,99.90
2023-05-07T02:14:21.592Z,99.90
2023-05-07T02:16:48.486Z,99.90
2023-05-07T02:19:15.264Z,99.90
2023-05-07T02:21:42.018Z,99.90
2023-05-07T02:24:08.763Z,99.90
2023-05-07T02:26:35.504Z,99.90
2023-05-07T02:29:02.150Z,99.90
2023-05-07T02:31:28.980Z,99.90
2023-05-07T02:33:55.678Z,99.90
2023-05-07T02:36:22.359Z,99.90
2023-05-07T02:38:49.008Z,99.90
2023-05-07T02:41:15.736Z,99.90
2023-05-07T02:43:42.380Z,99.90
2023-05-07T02:46:09.779Z,99.90
2023-05-07T02:48:36.557Z,99.90
2023-05-07T02:51:03.489Z,99.90
2023-05-07T02:53:30.496Z,99.90
2023-05-07T02:55:57.967Z,99.90
2023-05-07T02:58:24.671Z,99.90
2023-05-07T03:00:51.536Z,99.90
2023-05-07T03:03:18.293Z,99.90
2023-05-07T03:05:44.968Z,99.90
2023-05-07T03:08:11.683Z,99.90
2023-05-07T03:10:38.420Z,99.90
2023-05-07T03:13:05.365Z,99.90
2023-05-07T03:15:32.072Z,99.90
2023-05-07T03:17:59.055Z,99.90
2023-05-07T03:20:27.607Z,99.90
2023-05-07T03:22:54.369Z,99.90
2023-05-07T03:25:21.053Z,99.90
2023-05-07T03:27:47.701Z,99.90
2023-05-07T03:30:14.381Z,99.90
2023-05-07T03:32:41.257Z,99.90
2023-05-07T03:35:08.408Z,99.90
2023-05-07T03:37:35.088Z,99.90
2023-05-07T03:40:01.752Z,99.90
2023-05-07T03:42:29.456Z,99.90
2023-05-07T03:44:56.247Z,99.90
2023-05-07T03:47:24.240Z,99.90
2023-05-07T03:49:51.496Z,99.90
2023-05-07T03:52:23.357Z,99.90
2023-05-07T03:54:50.116Z,99.90
2023-05-07T03:57:16.843Z,99.90
2023-05-07T03:59:43.473Z,99.90
2023-05-07T04:02:10.251Z,99.90
2023-05-07T04:04:37.045Z,99.90
2023-05-07T04:07:04.165Z,99.90
2023-05-07T04:09:30.841Z,99.90
2023-05-07T04:11:57.534Z,99.90
2023-05-07T04:14:24.199Z,99.90
2023-05-07T04:16:50.917Z,99.90
2023-05-07T04:19:17.935Z,99.90
2023-05-07T04:21:44.588Z,99.90
2023-05-07T04:24:11.410Z,99.90
2023-05-07T04:26:38.037Z,99.90
2023-05-07T04:29:04.807Z,99.90
2023-05-07T04:31:31.682Z,99.90
2023-05-07T04:33:58.404Z,99.90
2023-05-07T04:36:28.645Z,99.90
2023-05-07T04:38:55.589Z,99.90
2023-05-07T04:41:22.234Z,99.90
2023-05-07T04:43:48.987Z,99.90
2023-05-07T04:46:15.693Z,99.90
2023-05-07T04:48:42.384Z,99.90
2023-05-07T04:51:09.036Z,99.90
2023-05-07T04:53:35.779Z,99.90
2023-05-07T04:56:02.428Z,99.90
2023-05-07T04:58:32.683Z,99.90
2023-05-07T05:01:00.067Z,99.90
2023-05-07T05:03:26.882Z,99.90
2023-05-07T05:05:54.022Z,99.90
2023-05-07T05:08:20.702Z,99.90
2023-05-07T05:10:49.632Z,99.90
2023-05-07T05:13:16.485Z,99.90
2023-05-07T05:15:43.495Z,99.90
2023-05-07T05:18:10.249Z,99.90
2023-05-07T05:20:37.047Z,99.90
2023-05-07T05:23:03.813Z,99.90
2023-05-07T05:25:30.600Z,99.90
2023-05-07T05:27:57.645Z,99.90
2023-05-07T05:30:24.397Z,99.90
2023-05-07T05:32:51.149Z,99.90
2023-05-07T05:35:17.897Z,99.90
2023-05-07T05:45:06.420Z,99.90
2023-05-07T05:47:33.207Z,99.90
2023-05-07T05:52:27.211Z,99.90
2023-05-07T05:54:54.592Z,99.90
2023-05-07T05:59:48.532Z,99.90
2023-05-07T06:04:43.844Z,99.90
2023-05-07T06:07:10.797Z,99.90
2023-05-07T06:09:37.483Z,99.90
2023-05-07T06:16:58.549Z,99.90
2023-05-07T06:19:27.540Z,99.90
2023-05-07T06:21:54.344Z,99.90
2023-05-07T06:24:21.158Z,99.90
2023-05-07T06:26:47.925Z,99.90
2023-05-07T06:29:14.832Z,99.90
2023-05-07T06:34:08.876Z,99.90
2023-05-07T06:36:36.121Z,99.90
2023-05-07T06:39:02.912Z,99.90
2023-05-07T06:41:29.667Z,99.90
2023-05-07T06:43:57.521Z,99.90
2023-05-07T06:46:24.406Z,99.90
2023-05-07T06:48:51.308Z,99.90
2023-05-07T06:51:18.208Z,99.90
2023-05-07T06:53:44.914Z,99.90
2023-05-07T06:56:11.682Z,99.90
2023-05-07T06:58:40.643Z,99.90
2023-05-07T07:01:07.405Z,99.90
2023-05-07T07:03:34.160Z,99.90
2023-05-07T07:06:02.902Z,99.90
2023-05-07T07:08:36.382Z,99.90
2023-05-07T07:11:03.173Z,99.90
2023-05-07T07:13:29.967Z,99.90
2023-05-07T07:15:59.261Z,99.90
2023-05-07T07:18:26.025Z,99.90
2023-05-07T07:20:54.902Z,99.90
2023-05-07T07:23:22.749Z,99.90
2023-05-07T07:25:49.565Z,99.90
2023-05-07T07:28:16.553Z,99.90
2023-05-07T07:30:43.593Z,99.90
2023-05-07T07:33:10.447Z,99.90
2023-05-07T07:35:37.156Z,99.90
2023-05-07T07:38:03.801Z,99.90
2023-05-07T07:40:30.972Z,99.90
2023-05-07T07:42:57.894Z,99.90
2023-05-07T07:45:24.896Z,99.90
2023-05-07T07:47:57.776Z,99.90
2023-05-07T07:50:44.191Z,99.90
2023-05-07T07:53:14.398Z,99.90
2023-05-07T07:55:41.554Z,99.90
2023-05-07T07:58:08.340Z,99.90
2023-05-07T08:00:34.947Z,99.90
2023-05-07T08:03:02.316Z,99.90
2023-05-07T08:05:29.096Z,99.90
2023-05-07T08:07:55.866Z,99.90
2023-05-07T08:10:56.630Z,99.90
2023-05-07T08:13:32.342Z,99.90
2023-05-07T08:15:59.048Z,99.90
2023-05-07T08:20:53.080Z,99.90
2023-05-07T08:23:22.990Z,99.90
2023-05-07T08:25:50.344Z,99.90
2023-05-07T08:28:17.004Z,99.90
2023-05-07T08:30:47.976Z,99.90
2023-05-07T08:33:14.782Z,99.90
2023-05-07T08:35:41.656Z,99.90
2023-05-07T08:38:08.333Z,99.90
2023-05-07T08:40:37.980Z,99.90
2023-05-07T08:45:31.910Z,99.90
2023-05-07T08:48:03.488Z,99.90
2023-05-07T08:50:30.302Z,99.90
2023-05-07T08:52:57.976Z,99.90
2023-05-07T08:55:25.393Z,99.90
2023-05-07T08:57:53.701Z,99.90
2023-05-07T09:00:20.487Z,99.90
2023-05-07T09:02:47.365Z,99.90
2023-05-07T09:12:37.313Z,99.90
2023-05-07T09:15:08.053Z,99.90
2023-05-07T09:17:38.233Z,99.90
2023-05-07T09:20:10.680Z,99.90
2023-05-07T09:25:06.854Z,99.90
2023-05-07T09:27:34.523Z,99.90
2023-05-07T09:30:04.173Z,99.90
2023-05-07T09:32:32.484Z,99.90
2023-05-07T09:34:59.521Z,99.90
2023-05-07T09:37:26.875Z,99.90
2023-05-07T09:39:53.674Z,99.90
2023-05-07T09:42:24.109Z,99.90
2023-05-07T09:44:51.770Z,99.90
2023-05-07T09:47:24.102Z,99.90
2023-05-07T09:49:51.137Z,99.90
2023-05-07T09:52:17.934Z,99.90
2023-05-07T09:54:46.093Z,99.90
2023-05-07T09:57:15.829Z,99.90
2023-05-07T09:59:43.686Z,99.90
2023-05-07T10:02:11.441Z,99.90
2023-05-07T10:04:38.223Z,99.90
2023-05-07T10:07:05.774Z,99.90
2023-05-07T10:09:33.023Z,99.90
2023-05-07T10:11:59.891Z,99.90
2023-05-07T10:14:28.960Z,99.90
2023-05-07T10:16:56.053Z,99.90
2023-05-07T10:19:23.083Z,99.90
2023-05-07T10:21:55.030Z,99.90
2023-05-07T10:24:27.095Z,99.90
2023-05-07T10:26:54.292Z,99.90
2023-05-07T10:29:24.902Z,99.90
2023-05-07T11:48:06.090Z,99.90
2023-05-07T11:50:32.666Z,99.90
2023-05-07T11:52:59.335Z,99.90
2023-05-07T11:55:27.007Z,99.90
2023-05-07T11:57:53.640Z,99.90
2023-05-07T12:00:20.298Z,99.90
2023-05-07T12:02:46.987Z,99.90
2023-05-07T12:05:13.890Z,99.90
2023-05-07T12:10:08.220Z,99.90
2023-05-07T12:12:43.109Z,99.90
2023-05-07T12:15:10.314Z,99.90
2023-05-07T12:17:37.329Z,99.90
2023-05-07T12:20:04.428Z,99.90
2023-05-07T12:22:31.491Z,99.90
2023-05-07T12:24:59.064Z,99.90
2023-05-07T12:27:26.674Z,99.90
2023-05-07T12:29:53.365Z,99.90
2023-05-07T12:32:21.447Z,99.90
2023-05-07T12:34:50.585Z,99.90
2023-05-07T12:37:17.369Z,99.90
2023-05-07T12:39:50.762Z,99.90
2023-05-07T12:47:11.674Z,99.70
2023-05-07T12:49:39.824Z,99.90
2023-05-07T12:52:06.896Z,99.90
2023-05-07T12:54:34.428Z,96.60
2023-05-07T12:57:01.755Z,98.10
2023-05-07T12:59:35.319Z,97.70
2023-05-07T13:02:02.399Z,97.10
2023-05-07T13:09:23.247Z,98.90
2023-05-07T13:11:49.912Z,97.90
2023-05-07T13:14:16.794Z,99.00
2023-05-07T13:16:43.719Z,96.50
2023-05-07T13:19:10.593Z,97.00
2023-05-07T13:21:37.209Z,96.60
2023-05-07T13:24:03.960Z,98.40
2023-05-07T13:26:31.225Z,96.40
2023-05-07T13:28:57.883Z,97.90
2023-05-07T13:38:45.784Z,95.10
2023-05-07T13:43:40.948Z,94.30
2023-05-07T13:46:07.770Z,95.60
2023-05-07T13:48:34.386Z,96.60
2023-05-07T13:51:05.113Z,97.00
2023-05-07T13:53:31.710Z,95.60
2023-05-07T13:55:58.323Z,94.50
2023-05-07T13:58:25.008Z,95.40
2023-05-07T14:00:51.761Z,97.70
2023-05-07T14:05:49.621Z,97.30
2023-05-07T14:08:19.622Z,97.10
2023-05-07T14:10:47.158Z,96.30
2023-05-07T14:13:13.887Z,95.50
2023-05-07T14:15:41.344Z,96.00
2023-05-07T14:18:08.098Z,96.00
2023-05-07T14:20:37.700Z,95.40
2023-05-07T14:23:04.521Z,93.90
2023-05-07T14:25:31.288Z,95.00
2023-05-07T14:27:57.946Z,94.40
2023-05-07T14:30:25.556Z,94.00
2023-05-07T14:32:52.328Z,93.50
2023-05-07T14:35:19.032Z,94.20
2023-05-07T14:37:45.804Z,94.60
2023-05-07T14:40:12.910Z,93.30
2023-05-07T14:42:39.822Z,92.40
2023-05-07T14:45:06.729Z,93.60
2023-05-07T14:47:33.419Z,93.00
2023-05-07T14:50:02.142Z,96.00
2023-05-07T14:52:28.915Z,96.60
2023-05-07T14:57:22.670Z,96.10
2023-05-07T14:59:49.359Z,98.40
2023-05-07T15:02:16.467Z,98.10
2023-05-07T15:04:46.885Z,98.80
2023-05-07T15:07:16.078Z,99.00
2023-05-07T15:09:43.283Z,99.80
2023-05-07T15:12:09.882Z,99.40
2023-05-07T15:14:36.654Z,99.50
2023-05-07T15:17:03.305Z,99.70
2023-05-07T15:19:30.549Z,99.60
2023-05-07T15:22:03.234Z,99.90
2023-05-07T15:24:30.253Z,99.90
2023-05-07T15:26:57.516Z,99.90
2023-05-07T15:29:24.157Z,99.50
2023-05-07T15:31:50.938Z,98.60
2023-05-07T15:34:17.597Z,99.70
2023-05-07T15:36:44.295Z,99.90
2023-05-07T15:39:11.687Z,99.00
2023-05-07T15:41:38.306Z,99.20
2023-05-07T15:44:05.093Z,99.90
2023-05-07T15:46:31.762Z,99.90
2023-05-07T15:51:25.567Z,99.90
2023-05-07T15:56:20.012Z,99.90
2023-05-07T15:58:46.743Z,99.90
2023-05-07T16:01:15.719Z,99.90
2023-05-07T16:03:42.792Z,99.90
2023-05-07T16:06:12.018Z,99.90
2023-05-07T16:08:40.288Z,99.90
2023-05-07T16:11:06.926Z,99.90
2023-05-07T16:16:00.695Z,99.90
2023-05-07T16:18:27.310Z,99.90
2023-05-07T16:20:54.585Z,99.90
2023-05-07T16:23:21.529Z,99.90
2023-05-07T16:25:49.084Z,99.90
2023-05-07T16:28:16.030Z,99.90
2023-05-07T16:30:42.671Z,99.90
2023-05-07T16:33:09.380Z,99.90
2023-05-07T16:57:46.320Z,99.90
2023-05-07T17:02:40.021Z,99.90
2023-05-07T17:10:01.686Z,99.90
2023-05-07T17:17:23.055Z,99.90
2023-05-07T17:22:16.703Z,99.90
2023-05-07T17:24:43.341Z,99.90
2023-05-07T17:27:09.953Z,99.90
2023-05-07T17:29:36.535Z,99.90
2023-05-07T17:32:03.307Z,99.90
2023-05-07T17:34:32.409Z,99.90
2023-05-07T17:36:59.001Z,99.90
2023-05-07T17:39:25.619Z,99.90
2023-05-07T17:41:52.275Z,99.90
2023-05-07T17:44:18.914Z,99.90
2023-05-07T17:46:45.515Z,99.90
2023-05-07T17:49:12.107Z,99.90
2023-05-07T17:51:52.654Z,99.90
2023-05-07T17:54:21.649Z,99.90
2023-05-07T17:56:48.276Z,99.90
2023-05-07T18:01:42.382Z,99.90
2023-05-07T18:04:09.376Z,99.90
2023-05-07T18:06:36.428Z,99.90
2023-05-07T18:09:03.106Z,99.90
2023-05-07T18:11:32.435Z,99.90
2023-05-07T18:14:00.716Z,99.90
2023-05-07T18:16:27.440Z,99.90
2023-05-07T18:18:54.571Z,99.90
2023-05-07T18:21:21.261Z,99.90
2023-05-07T18:23:48.276Z,99.90
2023-05-07T18:26:15.143Z,99.90
2023-05-07T18:28:41.738Z,99.90
2023-05-07T18:31:08.320Z,99.90
2023-05-07T18:33:34.935Z,99.90
2023-05-07T18:36:01.842Z,99.90
2023-05-07T18:38:28.559Z,99.90
2023-05-07T18:41:05.848Z,99.90
2023-05-07T18:43:34.083Z,99.90
2023-05-07T18:46:01.679Z,99.90
2023-05-07T18:48:29.071Z,99.90
2023-05-07T18:54:26.271Z,99.90
2023-05-07T18:56:54.318Z,99.90
2023-05-07T19:06:15.765Z,99.90
2023-05-07T19:08:42.401Z,99.90
2023-05-07T19:11:09.061Z,99.90
2023-05-07T19:13:36.026Z,99.90
2023-05-07T19:16:03.472Z,99.90
2023-05-07T19:18:31.918Z,99.90
2023-05-07T19:20:58.635Z,99.90
2023-05-07T19:23:25.549Z,99.90
2023-05-07T19:25:52.229Z,99.90
2023-05-07T19:28:19.170Z,99.90
2023-05-07T19:30:45.817Z,99.90
2023-05-07T19:33:12.640Z,99.90
2023-05-07T19:35:39.423Z,99.90
2023-05-07T19:38:06.211Z,99.90
2023-05-07T19:40:32.951Z,99.90
2023-05-07T19:42:59.666Z,99.90
2023-05-07T19:45:26.353Z,99.90
2023-05-07T19:47:53.085Z,99.90
2023-05-07T19:50:19.862Z,99.90
2023-05-07T19:52:46.950Z,99.90
2023-05-07T19:55:14.101Z,99.90
2023-05-07T19:57:40.997Z,99.90
2023-05-07T20:00:08.344Z,99.90
2023-05-07T20:02:35.084Z,99.90
2023-05-07T20:05:01.796Z,99.90
2023-05-07T20:07:28.449Z,99.90
2023-05-07T20:09:55.180Z,99.90
2023-05-07T20:14:49.131Z,99.90
2023-05-07T20:17:15.765Z,99.90
2023-05-07T20:19:42.457Z,99.90
2023-05-07T20:22:09.132Z,99.90
2023-05-07T20:24:39.345Z,99.90
2023-05-07T20:27:06.301Z,99.90
2023-05-07T20:29:33.558Z,99.90
2023-05-07T20:32:00.308Z,99.90
2023-05-07T20:34:27.007Z,99.90
2023-05-07T20:36:53.694Z,99.90
2023-05-07T20:41:47.385Z,99.90
2023-05-07T20:46:41.219Z,99.90
2023-05-07T20:51:35.397Z,99.90
2023-05-07T20:56:29.225Z,99.90
2023-05-07T20:58:55.872Z,99.90
2023-05-07T21:01:22.603Z,99.90
2023-05-07T21:03:50.243Z,99.90
2023-05-07T21:06:16.878Z,99.90
2023-05-07T21:08:43.527Z,99.90
2023-05-07T21:11:10.250Z,99.90
2023-05-07T21:13:36.952Z,99.90
2023-05-07T21:16:03.782Z,99.90
2023-05-07T21:20:57.622Z,99.90
2023-05-07T21:23:24.291Z,99.90
2023-05-07T21:25:51.841Z,99.90
2023-05-07T21:28:18.692Z,99.90
2023-05-07T21:30:45.384Z,99.90
2023-05-07T21:33:12.104Z,99.90
2023-05-07T21:35:38.795Z,99.90
2023-05-07T21:38:05.742Z,99.90
2023-05-07T21:40:32.466Z,99.90
2023-05-07T21:43:00.342Z,99.90
2023-05-07T21:45:27.300Z,99.90
2023-05-07T21:47:54.101Z,99.90
2023-05-07T21:50:21.288Z,99.90
2023-05-07T21:52:48.334Z,99.90
2023-05-07T21:55:15.021Z,99.90
2023-05-07T21:57:45.690Z,99.90
2023-05-07T22:00:17.790Z,99.90
2023-05-07T22:02:44.524Z,99.90
2023-05-07T22:05:11.381Z,99.90
2023-05-07T22:07:38.130Z,99.90
2023-05-07T22:10:04.994Z,99.90
2023-05-07T22:12:31.673Z,99.90
2023-05-07T22:14:58.427Z,99.90
2023-05-07T22:17:25.122Z,99.90
2023-05-07T22:19:52.060Z,99.90
2023-05-07T22:22:19.315Z,99.90
2023-05-07T22:24:46.456Z,99.90
2023-05-07T22:27:13.165Z,99.90
2023-05-07T22:29:39.807Z,99.90
2023-05-07T22:32:06.587Z,99.90
2023-05-07T22:34:33.348Z,99.90
2023-05-07T22:36:59.969Z,99.90
2023-05-07T22:39:26.660Z,99.90
2023-05-07T22:41:53.457Z,99.90
2023-05-07T22:44:20.158Z,99.90
2023-05-07T22:46:47.005Z,99.90
2023-05-07T22:49:13.714Z,99.90
2023-05-07T22:51:40.395Z,99.90
2023-05-07T22:54:08.481Z,99.90
2023-05-07T22:56:35.214Z,99.90
2023-05-07T22:59:01.826Z,99.90
2023-05-07T23:01:28.654Z,99.90
2023-05-07T23:03:55.351Z,99.90
2023-05-07T23:06:22.055Z,99.90
2023-05-07T23:08:48.760Z,99.90
2023-05-07T23:11:15.436Z,99.90
2023-05-07T23:13:42.091Z,99.90
2023-05-07T23:16:08.804Z,99.90
2023-05-07T23:18:35.788Z,99.90
2023-05-07T23:21:02.498Z,99.90
2023-05-07T23:23:33.666Z,99.90
2023-05-07T23:26:00.577Z,99.90
2023-05-07T23:28:27.252Z,99.90
2023-05-07T23:30:54.097Z,99.90
2023-05-07T23:33:20.784Z,99.90
2023-05-07T23:35:47.466Z,99.90
2023-05-07T23:38:14.226Z,99.90
2023-05-07T23:40:40.999Z,99.90
2023-05-07T23:43:07.806Z,99.90
2023-05-07T23:45:34.493Z,99.90
2023-05-07T23:48:01.206Z,99.90
2023-05-07T23:50:27.899Z,99.90
2023-05-07T23:52:54.573Z,99.90
2023-05-07T23:55:21.348Z,99.90
2023-05-07T23:57:48.083Z,99.90
